• Join FlightAware (Why Join?)
  • Login
  • US Flag 
05:41PM EDT


 

Airport Tracker/Info


-or-


 

Live Flight TrackerFlight Track Log ✈ KAP29 ✈ 29-Jul-2013 ✈ KSLK - KBOS

Flight Track Log - Related Links

Times and Time Zones

All times are in EDT time to prevent confusion due to time zone crossing. See the KAP29 flight status page for this flight to view local times or setup timezone preferences in your user account.

Time Position Orientation Groundspeed Altitude Reporting Facility
EDT Latitude Longitude Course Direction KTS MPH feet Rate Location/Type
11:54AM 44.2214 -74.1522 118° Southeast 148 170 7,200  Level Boston Center
11:55AM 44.2056 -74.1111 118° Southeast 126 145 8,100 840 Climbing Boston Center
11:56AM 44.1936 -74.0558 107° East 121 139 8,900 780 Climbing Boston Center
11:57AM 44.1797 -74.0092 113° Southeast 137 158 9,700 600 Climbing Boston Center
11:58AM 44.1700 -73.9597 105° East 137 158 10,200 480 Climbing Boston Center
11:59AM 44.1603 -73.9131 106° East 132 152 10,700 360 Climbing Boston Center
12:00PM 44.1422 -73.8633 117° Southeast 132 152 11,000 120 Climbing Boston Center
12:01PM 44.1197 -73.8108 121° Southeast 148 170 11,000  Level Boston Center
12:02PM 44.0975 -73.7525 118° Southeast 161 185 11,000  Level Boston Center
12:03PM 44.0753 -73.6914 117° Southeast 167 192 11,000  Level Boston Center
12:04PM 44.0508 -73.6331 120° Southeast 172 198 11,000  Level Boston Center
12:05PM 44.0206 -73.5517 117° Southeast 177 204 11,000  Level Boston Center
12:06PM 43.9919 -73.4789 119° Southeast 177 204 11,000  Level Boston Center
12:07PM 43.9675 -73.4181 119° Southeast 182 209 11,000  Level Boston Center
12:08PM 43.9431 -73.3542 118° Southeast 174 200 11,000  Level Boston Center
12:09PM 43.9206 -73.2961 118° Southeast 169 194 11,000  Level Boston Center
12:10PM 43.8981 -73.2439 121° Southeast 163 188 11,000  Level Boston Center
12:11PM 43.8733 -73.1803 118° Southeast 163 188 11,000  Level Boston Center
12:13PM 43.8508 -73.1253 120° Southeast 163 188 11,000  Level Boston Center
12:14PM 43.8283 -73.0703 120° Southeast 163 188 11,000  Level Boston Center
12:15PM 43.8078 -73.0125 116° Southeast 163 188 11,000  Level Boston Center
12:15PM 43.7933 -72.9519 108° East 163 188 11,000  Level Boston Center
12:16PM 43.7728 -72.8944 116° Southeast 163 188 11,000  Level Boston Center
12:17PM 43.7481 -72.8394 122° Southeast 163 188 11,000  Level Boston Center
12:18PM 43.7233 -72.7847 122° Southeast 163 188 11,000  Level Boston Center
12:20PM 43.7047 -72.7331 116° Southeast 163 188 11,000  Level Boston Center
12:21PM 43.6861 -72.6725 113° Southeast 168 193 11,000  Level Boston Center
12:21PM 43.6756 -72.6153 104° East 168 193 11,100  Climbing Boston Center
12:22PM 43.6611 -72.5519 107° East 168 193 11,100  Level Boston Center
12:23PM 43.6467 -72.4861 107° East 168 193 11,100  Level Boston Center
12:25PM 43.6300 -72.4200 109° East 173 199 11,100  Level Boston Center
12:26PM 43.6111 -72.3542 112° Southeast 178 205 11,100  Level Boston Center
12:27PM 43.5883 -72.2939 118° Southeast 178 205 11,100  Level Boston Center
12:27PM 43.5486 -72.2511 142° Southeast 168 193 11,100  Level Boston Center
12:28PM 43.5131 -72.2111 141° Southeast 163 188 11,100  Level Boston Center
12:29PM 43.4858 -72.1597 126° Southeast 163 188 11,100  Level Boston Center
12:30PM 43.4628 -72.1025 119° Southeast 163 188 11,100  Level Boston Center
12:31PM 43.4481 -72.0425 109° East 170 196 11,100  Level Boston Center
12:32PM 43.4372 -71.9769 103° East 170 196 11,100  Level Boston Center
12:34PM 43.4122 -71.9400 133° Southeast 175 201 11,100  Level Boston Center
12:34PM 43.3622 -71.9461 185° South 131 151 11,100 -60 Level Boston Center
12:35PM 43.3225 -71.9406 174° South 152 175 11,000 -360 Descending Boston Center
12:36PM 43.2725 -71.9325 173° South 164 189 10,400 -540 Descending Boston Center
12:38PM 43.2369 -71.9100 155° Southeast 159 183 10,000 -240 Descending Boston Center
12:39PM 43.1950 -71.8761 149° Southeast 159 183 10,000  Level Boston Center
12:39PM 43.1636 -71.8508 150° Southeast 159 183 10,000  Level Boston Center
12:41PM 43.1261 -71.8200 149° Southeast 154 177 10,000  Level Boston Center
12:42PM 43.0842 -71.7864 150° Southeast 148 170 10,000  Level Boston Center
12:43PM 43.0486 -71.7611 153° Southeast 148 170 10,000 -180 Level Boston Center
12:44PM 42.9833 -71.6833 139° Southeast 176 203 9,600 -420 Descending KA90
12:45PM 42.9667 -71.6333 114° Southeast 188 216 9,000 -300 Descending KA90
12:46PM 42.9333 -71.5667 124° Southeast 176 203 9,000 -240 Level KA90
12:47PM 42.9167 -71.5167 114° Southeast 168 193 8,600 -600 Descending KA90
12:48PM 42.8833 -71.4667 132° Southeast 184 212 7,900 -720 Descending KA90
12:49PM 42.8500 -71.4000 124° Southeast 177 204 7,200 -660 Descending KA90
12:50PM 42.8167 -71.3500 132° Southeast 178 205 6,600 -600 Descending KA90
12:51PM 42.8000 -71.3000 114° Southeast 175 201 6,100 -300 Descending KA90
12:52PM 42.7833 -71.2333 109° East 163 188 6,000 -240 Descending KA90
12:53PM 42.7500 -71.1833 132° Southeast 158 182 5,700 -360 Descending KA90
12:54PM 42.7333 -71.1333 114° Southeast 159 183 5,300 -420 Descending KA90
12:55PM 42.7167 -71.0833 114° Southeast 157 181 4,900 -420 Descending KA90
12:56PM 42.6833 -71.0333 132° Southeast 151 174 4,500 -480 Descending KA90
12:57PM 42.6667 -70.9833 114° Southeast 158 182 4,000 -660 Descending KA90
12:58PM 42.6333 -70.9500 144° Southeast 169 194 3,300 -540 Descending KA90
12:59PM 42.5833 -70.9333 166° South 167 192 3,000 -180 Descending KA90
01:00PM 42.5500 -70.9333 180° South 149 171 3,000 -120 Level KA90
01:01PM 42.5000 -70.9333 180° South 154 177 2,800 -540 Descending KA90
01:02PM 42.4500 -70.9667 206° Southwest 175 201 1,900 -900 Descending KA90
01:03PM 42.4000 -70.9833 194° South 162 186 1,000 -900 Descending KA90
01:05PM 42.3630 -71.0064 194° South  Level Estimated
01:12PM 42.3630 -71.0064 194° South  Level Estimated
01:13PM 42.3630 -71.0064 194° South  Level Estimated